Time,TemperatureF,DewpointF,PressureIn,WindDirection,WindDirectionDegrees,WindSpeedMPH,WindSpeedGustMPH,Humidity,HourlyPrecipIn,Conditions,Clouds,dailyrainin,SoftwareType,DateUTC
2013-07-19 00:01:00,75.4,68.4,29.89,SSW,202,4.0,4.6,79,0.00,,OVC,0.00,WeatherDisplay:10.37,2013-07-19 05:01:00,
2013-07-19 00:06:00,75.4,68.0,29.89,SW,225,2.6,4.6,78,0.00,,OVC,0.00,WeatherDisplay:10.37,2013-07-19 05:06:00,
2013-07-19 00:11:00,75.6,68.2,29.89,SSW,202,4.0,5.8,78,0.00,,OVC,0.00,WeatherDisplay:10.37,2013-07-19 05:11:00,
2013-07-19 00:16:00,75.6,68.2,29.89,South,180,4.7,4.7,78,0.00,,OVC,0.00,WeatherDisplay:10.37,2013-07-19 05:16:00,
2013-07-19 00:21:00,75.6,68.2,29.89,SSW,202,3.3,5.8,78,0.00,,OVC,0.00,WeatherDisplay:10.37,2013-07-19 05:21:00,
2013-07-19 00:26:00,75.6,68.2,29.89,South,180,4.5,4.6,78,0.00,,OVC,0.00,WeatherDisplay:10.37,2013-07-19 05:26:00,
2013-07-19 00:31:00,75.4,68.0,29.89,South,180,3.3,3.5,78,0.00,,OVC,0.00,WeatherDisplay:10.37,2013-07-19 05:31:00,
2013-07-19 00:36:00,75.2,67.9,29.88,SW,225,2.4,4.6,78,0.00,,OVC,0.00,WeatherDisplay:10.37,2013-07-19 05:36:00,
2013-07-19 00:41:00,75.2,68.2,29.88,South,180,3.3,4.6,79,0.00,,OVC,0.00,WeatherDisplay:10.37,2013-07-19 05:41:00,
2013-07-19 00:46:00,75.2,68.2,29.88,SSW,202,4.3,4.6,79,0.00,,OVC,0.00,WeatherDisplay:10.37,2013-07-19 05:46:00,
2013-07-19 00:51:00,74.8,67.9,29.88,SW,225,3.3,3.5,79,0.00,,OVC,0.00,WeatherDisplay:10.37,2013-07-19 05:51:00,
2013-07-19 00:56:00,74.7,67.7,29.88,WSW,248,4.3,4.3,79,0.00,,OVC,0.00,WeatherDisplay:10.37,2013-07-19 05:56:00,
2013-07-19 01:01:00,74.7,67.7,29.88,South,180,2.2,4.6,79,0.00,,OVC,0.00,WeatherDisplay:10.37,2013-07-19 06:01:00,
2013-07-19 01:06:00,74.7,67.7,29.88,SSW,202,6.2,6.2,79,0.00,,OVC,0.00,WeatherDisplay:10.37,2013-07-19 06:06:00,
2013-07-19 01:11:00,74.8,67.9,29.88,South,180,5.9,5.9,79,0.00,,OVC,0.00,WeatherDisplay:10.37,2013-07-19 06:11:00,
2013-07-19 01:16:00,75.2,67.9,29.87,SW,225,3.3,4.6,78,0.00,,OVC,0.00,WeatherDisplay:10.37,2013-07-19 06:16:00,
2013-07-19 01:22:00,75.2,67.9,29.87,SSE,158,3.8,5.8,78,0.00,,OVC,0.00,WeatherDisplay:10.37,2013-07-19 06:22:00,
2013-07-19 01:27:00,75.0,68.1,29.87,SW,225,3.1,3.5,79,0.00,,OVC,0.00,WeatherDisplay:10.37,2013-07-19 06:27:00,
2013-07-19 01:32:00,75.0,68.1,29.87,SW,225,4.5,4.5,79,0.00,,OVC,0.00,WeatherDisplay:10.37,2013-07-19 06:32:00,
2013-07-19 01:37:00,75.0,67.7,29.87,SW,225,6.9,6.9,78,0.00,,OVC,0.00,WeatherDisplay:10.37,2013-07-19 06:37:00,
2013-07-19 01:42:00,75.2,67.9,29.87,SSE,158,4.7,4.7,78,0.00,,OVC,0.00,WeatherDisplay:10.37,2013-07-19 06:42:00,
2013-07-19 01:47:00,75.2,67.9,29.87,SSW,202,2.4,2.4,78,0.00,,OVC,0.00,WeatherDisplay:10.37,2013-07-19 06:47:00,
2013-07-19 01:52:00,75.2,67.9,29.86,WSW,248,4.9,4.9,78,0.00,,OVC,0.00,WeatherDisplay:10.37,2013-07-19 06:52:00,
2013-07-19 01:57:00,75.4,68.0,29.86,WSW,248,4.9,4.9,78,0.00,,OVC,0.00,WeatherDisplay:10.37,2013-07-19 06:57:00,
2013-07-19 02:02:00,75.6,68.2,29.86,SSW,202,4.0,5.8,78,0.00,,OVC,0.00,WeatherDisplay:10.37,2013-07-19 07:02:00,
2013-07-19 02:07:00,75.6,68.2,29.86,SW,225,7.8,7.8,78,0.00,,OVC,0.00,WeatherDisplay:10.37,2013-07-19 07:07:00,
2013-07-19 02:12:00,75.6,67.8,29.86,SW,225,4.9,6.9,77,0.00,,OVC,0.00,WeatherDisplay:10.37,2013-07-19 07:12:00,
2013-07-19 02:17:00,75.7,68.0,29.86,South,180,6.2,6.2,77,0.00,,OVC,0.00,WeatherDisplay:10.37,2013-07-19 07:17:00,
2013-07-19 02:22:00,75.9,68.2,29.86,SW,225,5.2,5.2,77,0.00,,OVC,0.00,WeatherDisplay:10.37,2013-07-19 07:22:00,
2013-07-19 02:27:00,75.9,68.2,29.86,SW,225,5.4,5.4,77,0.00,,OVC,0.00,WeatherDisplay:10.37,2013-07-19 07:27:00,
2013-07-19 02:32:00,75.9,68.2,29.86,SSW,202,6.2,6.2,77,0.00,,OVC,0.00,WeatherDisplay:10.37,2013-07-19 07:32:00,
2013-07-19 02:37:00,75.9,68.2,29.86,SW,225,6.0,6.9,77,0.00,,OVC,0.00,WeatherDisplay:10.37,2013-07-19 07:37:00,
2013-07-19 02:42:00,75.9,68.2,29.85,SW,225,4.7,5.8,77,0.00,,OVC,0.00,WeatherDisplay:10.37,2013-07-19 07:42:00,
2013-07-19 02:47:00,75.9,67.8,29.85,SSW,202,5.6,5.8,76,0.00,,OVC,0.00,WeatherDisplay:10.37,2013-07-19 07:47:00,
2013-07-19 02:52:00,76.1,68.0,29.85,WSW,248,4.5,5.8,76,0.00,,OVC,0.00,WeatherDisplay:10.37,2013-07-19 07:52:00,
2013-07-19 02:57:00,76.1,68.0,29.85,SSW,202,3.8,8.1,76,0.00,,OVC,0.00,WeatherDisplay:10.37,2013-07-19 07:57:00,
2013-07-19 03:02:00,76.3,68.2,29.84,SW,225,2.0,3.5,76,0.00,,OVC,0.00,WeatherDisplay:10.37,2013-07-19 08:02:00,
2013-07-19 03:07:00,76.3,67.8,29.84,SW,225,6.2,6.2,75,0.00,,OVC,0.00,WeatherDisplay:10.37,2013-07-19 08:07:00,
2013-07-19 03:12:00,76.5,67.9,29.84,SW,225,5.4,8.1,75,0.00,,OVC,0.00,WeatherDisplay:10.37,2013-07-19 08:12:00,
2013-07-19 03:17:00,76.5,67.9,29.83,SW,225,4.9,6.9,75,0.00,,OVC,0.00,WeatherDisplay:10.37,2013-07-19 08:17:00,
2013-07-19 03:22:00,76.6,68.1,29.83,SW,225,6.7,6.9,75,0.00,,OVC,0.00,WeatherDisplay:10.37,2013-07-19 08:22:00,
2013-07-19 03:27:00,76.6,68.1,29.83,SSW,202,7.6,7.6,75,0.00,,OVC,0.00,WeatherDisplay:10.37,2013-07-19 08:27:00,
2013-07-19 03:32:00,76.6,68.1,29.83,SW,225,9.2,9.2,75,0.00,,OVC,0.00,WeatherDisplay:10.37,2013-07-19 08:32:00,
2013-07-19 03:37:00,76.6,68.1,29.83,WSW,248,6.9,8.1,75,0.00,,OVC,0.00,WeatherDisplay:10.37,2013-07-19 08:37:00,
2013-07-19 03:42:00,76.6,68.1,29.83,SW,225,4.3,9.2,75,0.00,,OVC,0.00,WeatherDisplay:10.37,2013-07-19 08:42:00,
2013-07-19 03:47:00,76.6,68.1,29.83,SW,225,4.9,8.1,75,0.00,,OVC,0.00,WeatherDisplay:10.37,2013-07-19 08:47:00,
2013-07-19 03:52:00,76.6,68.1,29.82,SSW,202,5.2,5.2,75,0.00,,OVC,0.00,WeatherDisplay:10.37,2013-07-19 08:52:00,
2013-07-19 03:57:00,76.6,68.1,29.82,WSW,248,5.4,5.8,75,0.00,,OVC,0.00,WeatherDisplay:10.37,2013-07-19 08:57:00,
2013-07-19 04:02:00,76.6,68.1,29.82,SW,225,7.6,7.6,75,0.00,,OVC,0.00,WeatherDisplay:10.37,2013-07-19 09:02:00,
2013-07-19 04:07:00,76.6,68.1,29.82,SSW,202,2.0,5.8,75,0.00,,OVC,0.00,WeatherDisplay:10.37,2013-07-19 09:07:00,
2013-07-19 04:12:00,76.5,67.9,29.82,SW,225,4.0,5.8,75,0.00,,OVC,0.00,WeatherDisplay:10.37,2013-07-19 09:12:00,
2013-07-19 04:17:00,76.5,67.9,29.82,SW,225,5.4,6.9,75,0.00,,OVC,0.00,WeatherDisplay:10.37,2013-07-19 09:17:00,
2013-07-19 04:22:00,76.3,67.8,29.82,SW,225,2.4,5.8,75,0.00,,OVC,0.00,WeatherDisplay:10.37,2013-07-19 09:22:00,
2013-07-19 04:27:00,76.3,67.8,29.82,SSW,202,7.1,7.1,75,0.00,,OVC,0.00,WeatherDisplay:10.37,2013-07-19 09:27:00,
2013-07-19 04:32:00,76.3,67.8,29.82,SSW,202,5.4,5.8,75,0.00,,OVC,0.00,WeatherDisplay:10.37,2013-07-19 09:32:00,
2013-07-19 04:37:00,76.1,67.6,29.82,WSW,248,6.9,6.9,75,0.00,,OVC,0.00,WeatherDisplay:10.37,2013-07-19 09:37:00,
2013-07-19 04:42:00,76.3,67.8,29.82,SW,225,5.4,8.1,75,0.00,,OVC,0.00,WeatherDisplay:10.37,2013-07-19 09:42:00,
2013-07-19 04:47:00,76.5,67.9,29.82,SSW,202,5.9,6.9,75,0.00,,OVC,0.00,WeatherDisplay:10.37,2013-07-19 09:47:00,
2013-07-19 04:52:00,76.6,68.1,29.82,West,270,3.6,5.8,75,0.00,,OVC,0.00,WeatherDisplay:10.37,2013-07-19 09:52:00,
2013-07-19 04:57:00,76.6,68.1,29.82,SW,225,7.4,7.4,75,0.00,,OVC,0.00,WeatherDisplay:10.37,2013-07-19 09:57:00,
2013-07-19 05:02:00,76.8,67.9,29.82,West,270,5.6,5.6,74,0.00,,OVC,0.00,WeatherDisplay:10.37,2013-07-19 10:02:00,
2013-07-19 05:07:00,77.0,68.1,29.82,SSW,202,4.0,5.8,74,0.00,,OVC,0.00,WeatherDisplay:10.37,2013-07-19 10:07:00,
2013-07-19 05:12:00,77.2,68.2,29.83,West,270,5.4,5.4,74,0.00,,OVC,0.00,WeatherDisplay:10.37,2013-07-19 10:12:00,
2013-07-19 05:17:00,77.4,68.0,29.82,SW,225,5.2,6.9,73,0.00,,OVC,0.00,WeatherDisplay:10.37,2013-07-19 10:17:00,
2013-07-19 05:22:00,77.5,68.2,29.82,WSW,248,5.4,9.2,73,0.00,,OVC,0.00,WeatherDisplay:10.37,2013-07-19 10:22:00,
2013-07-19 05:27:00,77.5,67.8,29.82,SW,225,7.6,8.1,72,0.00,,OVC,0.00,WeatherDisplay:10.37,2013-07-19 10:27:00,
2013-07-19 05:32:00,77.7,68.0,29.82,SW,225,7.6,7.6,72,0.00,,OVC,0.00,WeatherDisplay:10.37,2013-07-19 10:32:00,
2013-07-19 05:37:00,77.7,68.0,29.82,WSW,248,4.7,4.7,72,0.00,,OVC,0.00,WeatherDisplay:10.37,2013-07-19 10:37:00,
2013-07-19 05:42:00,77.7,68.0,29.82,SW,225,9.9,9.9,72,0.00,,OVC,0.00,WeatherDisplay:10.37,2013-07-19 10:42:00,
2013-07-19 05:47:00,77.9,67.7,29.82,West,270,6.9,8.1,71,0.00,,OVC,0.00,WeatherDisplay:10.37,2013-07-19 10:47:00,
2013-07-19 05:52:00,77.9,67.7,29.82,WSW,248,8.3,8.3,71,0.00,,OVC,0.00,WeatherDisplay:10.37,2013-07-19 10:52:00,
2013-07-19 05:57:00,78.1,67.9,29.82,SSW,202,7.6,7.6,71,0.00,,OVC,0.00,WeatherDisplay:10.37,2013-07-19 10:57:00,
2013-07-19 06:02:00,78.1,67.9,29.82,SSW,202,4.9,9.2,71,0.00,,OVC,0.00,WeatherDisplay:10.37,2013-07-19 11:02:00,
2013-07-19 06:07:00,78.1,67.9,29.82,WSW,248,7.1,7.1,71,0.00,,OVC,0.00,WeatherDisplay:10.37,2013-07-19 11:07:00,
2013-07-19 06:13:00,78.1,67.9,29.83,SW,225,5.2,5.2,71,0.00,,OVC,0.00,WeatherDisplay:10.37,2013-07-19 11:13:00,
2013-07-19 06:18:00,78.1,67.9,29.84,West,270,7.4,9.2,71,0.00,,OVC,0.00,WeatherDisplay:10.37,2013-07-19 11:18:00,
2013-07-19 06:23:00,78.1,67.9,29.84,West,270,8.5,9.2,71,0.00,,OVC,0.00,WeatherDisplay:10.37,2013-07-19 11:23:00,
2013-07-19 06:28:00,78.1,67.9,29.84,West,270,9.9,9.9,71,0.00,,OVC,0.00,WeatherDisplay:10.37,2013-07-19 11:28:00,
2013-07-19 06:33:00,77.9,68.1,29.84,WSW,248,4.3,8.1,72,0.00,,OVC,0.00,WeatherDisplay:10.37,2013-07-19 11:33:00,
2013-07-19 06:38:00,77.7,68.0,29.85,West,270,6.4,9.2,72,0.00,,OVC,0.00,WeatherDisplay:10.37,2013-07-19 11:38:00,
2013-07-19 06:43:00,77.4,68.0,29.85,WSW,248,5.4,5.4,73,0.00,,OVC,0.00,WeatherDisplay:10.37,2013-07-19 11:43:00,
2013-07-19 06:48:00,77.0,68.1,29.85,SW,225,2.4,2.4,74,0.00,,OVC,0.00,WeatherDisplay:10.37,2013-07-19 11:48:00,
2013-07-19 06:53:00,76.8,67.9,29.84,SW,225,3.3,3.5,74,0.00,,OVC,0.00,WeatherDisplay:10.37,2013-07-19 11:53:00,
2013-07-19 06:58:00,76.6,67.7,29.84,SSW,202,4.0,4.6,74,0.00,,OVC,0.00,WeatherDisplay:10.37,2013-07-19 11:58:00,
2013-07-19 07:03:00,76.5,67.9,29.84,WSW,248,2.4,3.5,75,0.00,,OVC,0.00,WeatherDisplay:10.37,2013-07-19 12:03:00,
2013-07-19 07:08:00,76.5,67.9,29.84,WSW,248,5.9,5.9,75,0.00,,OVC,0.00,WeatherDisplay:10.37,2013-07-19 12:08:00,
2013-07-19 07:13:00,76.3,67.8,29.84,SW,225,3.1,4.6,75,0.00,,OVC,0.00,WeatherDisplay:10.37,2013-07-19 12:13:00,
2013-07-19 07:18:00,76.1,67.6,29.84,West,270,2.4,3.5,75,0.00,,OVC,0.00,WeatherDisplay:10.37,2013-07-19 12:18:00,
2013-07-19 07:23:00,76.1,67.6,29.85,WSW,248,2.0,3.5,75,0.00,,OVC,0.00,WeatherDisplay:10.37,2013-07-19 12:23:00,
2013-07-19 07:28:00,75.9,67.8,29.85,SSW,202,1.2,3.5,76,0.00,,OVC,0.00,WeatherDisplay:10.37,2013-07-19 12:28:00,
2013-07-19 07:33:00,75.9,67.8,29.85,SW,225,3.3,3.5,76,0.00,,OVC,0.00,WeatherDisplay:10.37,2013-07-19 12:33:00,
2013-07-19 07:38:00,75.9,67.8,29.84,SW,225,1.2,4.6,76,0.00,,OVC,0.00,WeatherDisplay:10.37,2013-07-19 12:38:00,
2013-07-19 07:43:00,75.9,67.8,29.84,WSW,248,1.2,2.3,76,0.00,,OVC,0.00,WeatherDisplay:10.37,2013-07-19 12:43:00,
2013-07-19 07:48:00,76.1,68.0,29.83,SW,225,1.8,2.3,76,0.00,,OVC,0.00,WeatherDisplay:10.37,2013-07-19 12:48:00,
2013-07-19 07:53:00,76.1,68.0,29.84,SW,225,1.8,2.3,76,0.00,,OVC,0.00,WeatherDisplay:10.37,2013-07-19 12:53:00,
2013-07-19 07:58:00,76.1,68.4,29.84,SW,225,2.6,2.6,77,0.00,,OVC,0.00,WeatherDisplay:10.37,2013-07-19 12:58:00,
2013-07-19 08:03:00,76.1,68.4,29.84,SW,225,2.9,4.6,77,0.00,,OVC,0.00,WeatherDisplay:10.37,2013-07-19 13:03:00,
2013-07-19 08:08:00,76.5,68.3,29.83,WSW,248,3.3,3.5,76,0.00,,OVC,0.00,WeatherDisplay:10.37,2013-07-19 13:08:00,
2013-07-19 08:13:00,77.0,69.2,29.84,WSW,248,4.0,4.6,77,0.00,,OVC,0.00,WeatherDisplay:10.37,2013-07-19 13:13:00,
2013-07-19 08:18:00,77.4,69.2,29.83,SW,225,4.0,4.6,76,0.00,,OVC,0.00,WeatherDisplay:10.37,2013-07-19 13:18:00,
2013-07-19 08:23:00,77.5,69.4,29.83,West,270,4.7,8.1,76,0.00,,OVC,0.00,WeatherDisplay:10.37,2013-07-19 13:23:00,
2013-07-19 08:26:00,77.5,69.4,29.83,SW,225,2.4,5.8,76,0.00,,OVC,0.00,WeatherDisplay:10.37,2013-07-19 13:26:00,
2013-07-19 08:31:00,77.5,69.0,29.83,SSW,202,5.2,5.2,75,0.00,,OVC,0.00,WeatherDisplay:10.37,2013-07-19 13:31:00,
2013-07-19 08:36:00,77.4,69.2,29.84,West,270,4.0,4.6,76,0.00,,OVC,0.00,WeatherDisplay:10.37,2013-07-19 13:36:00,
2013-07-19 08:41:00,77.4,69.6,29.85,SW,225,3.1,4.6,77,0.00,,OVC,0.00,WeatherDisplay:10.37,2013-07-19 13:41:00,
2013-07-19 08:46:00,77.4,69.6,29.85,WSW,248,3.3,3.3,77,0.00,,OVC,0.00,WeatherDisplay:10.37,2013-07-19 13:46:00,
2013-07-19 08:51:00,77.4,69.6,29.85,SW,225,4.0,4.6,77,0.00,,OVC,0.00,WeatherDisplay:10.37,2013-07-19 13:51:00,
2013-07-19 08:56:00,77.4,69.6,29.85,SSW,202,7.6,7.6,77,0.00,,OVC,0.00,WeatherDisplay:10.37,2013-07-19 13:56:00,
2013-07-19 09:02:00,77.5,69.8,29.84,West,270,3.3,5.8,77,0.00,,OVC,0.00,WeatherDisplay:10.37,2013-07-19 14:02:00,
2013-07-19 09:07:00,77.4,69.6,29.84,WSW,248,9.2,9.2,77,0.00,,OVC,0.00,WeatherDisplay:10.37,2013-07-19 14:07:00,
2013-07-19 09:12:00,77.5,69.4,29.84,SW,225,8.3,8.3,76,0.00,,OVC,0.00,WeatherDisplay:10.37,2013-07-19 14:12:00,
2013-07-19 09:17:00,77.5,69.4,29.84,SW,225,4.0,4.6,76,0.00,,OVC,0.00,WeatherDisplay:10.37,2013-07-19 14:17:00,
2013-07-19 09:22:00,77.4,69.2,29.84,WSW,248,3.3,4.6,76,0.00,,OVC,0.00,WeatherDisplay:10.37,2013-07-19 14:22:00,
2013-07-19 09:27:00,77.5,69.8,29.85,SSW,202,3.6,4.6,77,0.00,,OVC,0.00,WeatherDisplay:10.37,2013-07-19 14:27:00,
2013-07-19 09:32:00,77.7,69.9,29.85,WSW,248,7.4,7.4,77,0.00,,OVC,0.00,WeatherDisplay:10.37,2013-07-19 14:32:00,
2013-07-19 09:37:00,77.9,69.7,29.85,WSW,248,3.1,4.6,76,0.00,,OVC,0.00,WeatherDisplay:10.37,2013-07-19 14:37:00,
2013-07-19 09:42:00,78.1,69.9,29.85,WSW,248,6.2,6.2,76,0.00,,OVC,0.00,WeatherDisplay:10.37,2013-07-19 14:42:00,
2013-07-19 09:47:00,78.4,70.2,29.84,WSW,248,3.3,3.3,76,0.00,,OVC,0.00,WeatherDisplay:10.37,2013-07-19 14:47:00,
2013-07-19 09:52:00,78.8,70.6,29.84,WSW,248,4.5,5.8,76,0.00,,OVC,0.00,WeatherDisplay:10.37,2013-07-19 14:52:00,
2013-07-19 09:57:00,79.2,70.5,29.84,WSW,248,6.9,8.1,75,0.00,,OVC,0.00,WeatherDisplay:10.37,2013-07-19 14:57:00,
2013-07-19 10:02:00,79.7,71.1,29.84,WSW,248,5.6,5.8,75,0.00,,OVC,0.00,WeatherDisplay:10.37,2013-07-19 15:02:00,
2013-07-19 10:07:00,79.9,70.4,29.84,SW,225,6.2,6.9,73,0.00,,OVC,0.00,WeatherDisplay:10.37,2013-07-19 15:07:00,
2013-07-19 10:12:00,80.2,71.2,29.84,WSW,248,6.4,8.1,74,0.00,,OVC,0.00,WeatherDisplay:10.37,2013-07-19 15:12:00,
2013-07-19 10:17:00,80.8,70.9,29.84,WSW,248,7.8,7.8,72,0.00,,OVC,0.00,WeatherDisplay:10.37,2013-07-19 15:17:00,
2013-07-19 10:22:00,81.0,71.5,29.84,WSW,248,6.9,6.9,73,0.00,,OVC,0.00,WeatherDisplay:10.37,2013-07-19 15:22:00,
2013-07-19 10:27:00,81.0,70.7,29.84,WSW,248,5.9,5.9,71,0.00,,OVC,0.00,WeatherDisplay:10.37,2013-07-19 15:27:00,
2013-07-19 10:32:00,81.0,70.7,29.84,SW,225,6.9,8.1,71,0.00,,OVC,0.00,WeatherDisplay:10.37,2013-07-19 15:32:00,
2013-07-19 10:37:00,81.0,70.7,29.84,SW,225,4.5,9.2,71,0.00,,OVC,0.00,WeatherDisplay:10.37,2013-07-19 15:37:00,
2013-07-19 10:42:00,81.5,71.2,29.84,WSW,248,6.4,10.4,71,0.00,,OVC,0.00,WeatherDisplay:10.37,2013-07-19 15:42:00,
2013-07-19 10:47:00,81.5,70.3,29.84,West,270,9.7,9.7,69,0.00,,OVC,0.00,WeatherDisplay:10.37,2013-07-19 15:47:00,
2013-07-19 10:52:00,81.3,70.6,29.84,SW,225,8.5,8.5,70,0.00,,OVC,0.00,WeatherDisplay:10.37,2013-07-19 15:52:00,
2013-07-19 10:57:00,81.5,71.2,29.84,SSW,202,7.6,7.6,71,0.00,,OVC,0.00,WeatherDisplay:10.37,2013-07-19 15:57:00,
2013-07-19 11:02:00,82.0,71.3,29.84,SW,225,4.5,9.2,70,0.00,,OVC,0.00,WeatherDisplay:10.37,2013-07-19 16:02:00,
2013-07-19 11:07:00,82.4,72.5,29.84,West,270,4.0,5.8,72,0.00,,OVC,0.00,WeatherDisplay:10.37,2013-07-19 16:07:00,
2013-07-19 11:12:00,82.8,72.0,29.84,SW,225,10.5,10.5,70,0.00,,OVC,0.00,WeatherDisplay:10.37,2013-07-19 16:12:00,
2013-07-19 11:17:00,83.1,72.3,29.83,West,270,7.6,8.1,70,0.00,,OVC,0.00,WeatherDisplay:10.37,2013-07-19 16:17:00,
2013-07-19 11:22:00,83.3,72.9,29.83,WSW,248,6.7,6.7,71,0.00,,OVC,0.00,WeatherDisplay:10.37,2013-07-19 16:22:00,
2013-07-19 11:27:00,83.7,72.8,29.84,WNW,292,8.3,8.3,70,0.00,,OVC,0.00,WeatherDisplay:10.37,2013-07-19 16:27:00,
2013-07-19 11:32:00,83.8,73.8,29.83,West,270,9.9,9.9,72,0.00,,OVC,0.00,WeatherDisplay:10.37,2013-07-19 16:32:00,
2013-07-19 11:37:00,84.2,73.3,29.84,SW,225,5.2,8.1,70,0.00,,OVC,0.00,WeatherDisplay:10.37,2013-07-19 16:37:00,
2013-07-19 11:42:00,84.2,73.8,29.83,West,270,6.4,6.4,71,0.00,,OVC,0.00,WeatherDisplay:10.37,2013-07-19 16:42:00,
2013-07-19 11:47:00,84.2,73.3,29.84,SW,225,8.5,9.2,70,0.00,,OVC,0.00,WeatherDisplay:10.37,2013-07-19 16:47:00,
2013-07-19 11:52:00,84.4,73.1,29.83,West,270,10.9,10.9,69,0.00,,OVC,0.00,WeatherDisplay:10.37,2013-07-19 16:52:00,
2013-07-19 11:57:00,84.2,73.3,29.83,West,270,6.9,6.9,70,0.00,,OVC,0.00,WeatherDisplay:10.37,2013-07-19 16:57:00,
2013-07-19 12:02:00,84.2,73.3,29.83,WSW,248,5.2,10.4,70,0.00,,OVC,0.00,WeatherDisplay:10.37,2013-07-19 17:02:00,
2013-07-19 12:07:00,84.4,73.5,29.83,WSW,248,5.4,5.8,70,0.00,,OVC,0.00,WeatherDisplay:10.37,2013-07-19 17:07:00,
2013-07-19 12:12:00,84.6,73.7,29.83,West,270,14.3,14.3,70,0.00,,OVC,0.00,WeatherDisplay:10.37,2013-07-19 17:12:00,
2013-07-19 12:17:00,84.6,73.7,29.83,SW,225,4.5,9.2,70,0.00,,OVC,0.00,WeatherDisplay:10.37,2013-07-19 17:17:00,
2013-07-19 12:22:00,84.6,73.3,29.83,West,270,7.8,8.1,69,0.00,,OVC,0.00,WeatherDisplay:10.37,2013-07-19 17:22:00,
2013-07-19 12:27:00,84.7,73.4,29.82,West,270,4.3,5.8,69,0.00,,OVC,0.00,WeatherDisplay:10.37,2013-07-19 17:27:00,
2013-07-19 12:32:00,84.9,74.0,29.83,WSW,248,9.4,9.4,70,0.00,,OVC,0.00,WeatherDisplay:10.37,2013-07-19 17:32:00,
2013-07-19 12:37:00,85.3,74.0,29.82,West,270,4.0,5.8,69,0.00,,OVC,0.00,WeatherDisplay:10.37,2013-07-19 17:37:00,
2013-07-19 12:42:00,85.5,74.1,29.83,WSW,248,4.9,5.8,69,0.00,,OVC,0.00,WeatherDisplay:10.37,2013-07-19 17:42:00,
2013-07-19 12:47:00,85.6,74.3,29.82,SW,225,2.6,9.2,69,0.00,,OVC,0.00,WeatherDisplay:10.37,2013-07-19 17:47:00,
2013-07-19 12:52:00,85.8,74.0,29.82,West,270,8.5,8.5,68,0.00,,OVC,0.00,WeatherDisplay:10.37,2013-07-19 17:52:00,
2013-07-19 12:57:00,86.0,74.6,29.82,WSW,248,6.4,8.1,69,0.00,,OVC,0.00,WeatherDisplay:10.37,2013-07-19 17:57:00,
2013-07-19 13:02:00,86.4,74.5,29.82,West,270,9.9,10.4,68,0.00,,OVC,0.00,WeatherDisplay:10.37,2013-07-19 18:02:00,
2013-07-19 13:07:00,86.4,74.1,29.82,WSW,248,8.5,9.2,67,0.00,,OVC,0.00,WeatherDisplay:10.37,2013-07-19 18:07:00,
2013-07-19 13:12:00,86.4,73.2,29.82,SW,225,9.0,10.4,65,0.00,,OVC,0.00,WeatherDisplay:10.37,2013-07-19 18:12:00,
2013-07-19 13:17:00,86.0,73.3,29.82,SW,225,4.7,9.2,66,0.00,,OVC,0.00,WeatherDisplay:10.37,2013-07-19 18:17:00,
2013-07-19 13:23:00,85.8,74.0,29.82,WSW,248,6.4,8.1,68,0.00,,OVC,0.00,WeatherDisplay:10.37,2013-07-19 18:23:00,
2013-07-19 13:28:00,85.6,73.9,29.82,WSW,248,6.9,6.9,68,0.00,,OVC,0.00,WeatherDisplay:10.37,2013-07-19 18:28:00,
2013-07-19 13:33:00,85.6,74.7,29.82,WSW,248,3.3,6.9,70,0.00,,OVC,0.00,WeatherDisplay:10.37,2013-07-19 18:33:00,
2013-07-19 13:38:00,86.4,74.5,29.82,WNW,292,7.4,8.1,68,0.00,,OVC,0.00,WeatherDisplay:10.37,2013-07-19 18:38:00,
2013-07-19 13:43:00,86.9,71.8,29.82,WNW,292,10.5,10.5,61,0.00,,OVC,0.00,WeatherDisplay:10.37,2013-07-19 18:43:00,
2013-07-19 13:48:00,87.3,71.7,29.82,West,270,8.7,10.4,60,0.00,,OVC,0.00,WeatherDisplay:10.37,2013-07-19 18:48:00,
2013-07-19 13:53:00,87.4,72.3,29.82,WNW,292,4.7,8.1,61,0.00,,OVC,0.00,WeatherDisplay:10.37,2013-07-19 18:53:00,
2013-07-19 13:58:00,87.8,72.2,29.82,WNW,292,4.0,10.4,60,0.00,,OVC,0.00,WeatherDisplay:10.37,2013-07-19 18:58:00,
2013-07-19 14:03:00,88.2,73.5,29.82,WSW,248,8.3,9.2,62,0.00,,OVC,0.00,WeatherDisplay:10.37,2013-07-19 19:03:00,
2013-07-19 14:08:00,88.2,73.5,29.82,West,270,4.5,4.5,62,0.00,,OVC,0.00,WeatherDisplay:10.37,2013-07-19 19:08:00,
2013-07-19 14:13:00,88.3,70.7,29.82,West,270,13.5,13.5,56,0.00,,OVC,0.00,WeatherDisplay:10.37,2013-07-19 19:13:00,
2013-07-19 14:18:00,88.5,70.8,29.82,NW,315,5.4,11.5,56,0.00,,OVC,0.00,WeatherDisplay:10.37,2013-07-19 19:18:00,
2013-07-19 14:23:00,88.7,71.5,29.82,West,270,9.9,16.1,57,0.00,,OVC,0.00,WeatherDisplay:10.37,2013-07-19 19:23:00,
2013-07-19 14:28:00,88.9,72.7,29.81,WNW,292,8.5,8.5,59,0.00,,OVC,0.00,WeatherDisplay:10.37,2013-07-19 19:28:00,
2013-07-19 14:33:00,88.9,72.7,29.81,West,270,8.5,8.5,59,0.00,,OVC,0.00,WeatherDisplay:10.37,2013-07-19 19:33:00,
2013-07-19 14:38:00,88.9,71.7,29.81,WNW,292,10.0,10.0,57,0.00,,OVC,0.00,WeatherDisplay:10.37,2013-07-19 19:38:00,
2013-07-19 14:43:00,88.3,71.2,29.82,WNW,292,4.9,5.8,57,0.00,,OVC,0.00,WeatherDisplay:10.37,2013-07-19 19:43:00,
2013-07-19 14:48:00,87.8,70.1,29.81,NNW,338,3.8,8.1,56,0.00,,OVC,0.00,WeatherDisplay:10.37,2013-07-19 19:48:00,
2013-07-19 14:53:00,88.5,69.2,29.81,WNW,292,6.4,16.1,53,0.00,,OVC,0.00,WeatherDisplay:10.37,2013-07-19 19:53:00,
2013-07-19 14:58:00,88.9,69.5,29.81,NW,315,5.4,5.8,53,0.00,,OVC,0.00,WeatherDisplay:10.37,2013-07-19 19:58:00,
2013-07-19 15:03:00,89.1,68.6,29.81,NW,315,3.1,5.8,51,0.00,,OVC,0.00,WeatherDisplay:10.37,2013-07-19 20:03:00,
2013-07-19 15:08:00,89.1,67.4,29.81,WNW,292,8.5,8.5,49,0.00,,OVC,0.00,WeatherDisplay:10.37,2013-07-19 20:08:00,
2013-07-19 15:13:00,89.1,68.6,29.81,NNW,338,5.4,10.4,51,0.00,,OVC,0.00,WeatherDisplay:10.37,2013-07-19 20:13:00,
2013-07-19 15:18:00,88.7,68.8,29.81,WNW,292,3.3,4.6,52,0.00,,OVC,0.00,WeatherDisplay:10.37,2013-07-19 20:18:00,
2013-07-19 15:23:00,88.5,67.5,29.81,NNW,338,10.7,10.7,50,0.00,,OVC,0.00,WeatherDisplay:10.37,2013-07-19 20:23:00,
2013-07-19 15:28:00,88.3,67.3,29.81,WNW,292,7.6,7.6,50,0.00,,OVC,0.00,WeatherDisplay:10.37,2013-07-19 20:28:00,
2013-07-19 15:33:00,88.2,67.2,29.81,NW,315,5.4,6.9,50,0.00,,OVC,0.00,WeatherDisplay:10.37,2013-07-19 20:33:00,
2013-07-19 15:38:00,88.0,67.0,29.81,WNW,292,5.9,8.1,50,0.00,,OVC,0.00,WeatherDisplay:10.37,2013-07-19 20:38:00,
2013-07-19 15:43:00,88.0,67.0,29.81,NW,315,7.6,7.6,50,0.00,,OVC,0.00,WeatherDisplay:10.37,2013-07-19 20:43:00,
2013-07-19 15:48:00,88.0,67.0,29.81,WNW,292,8.1,8.1,50,0.00,,OVC,0.00,WeatherDisplay:10.37,2013-07-19 20:48:00,
2013-07-19 15:53:00,87.8,67.4,29.81,WNW,292,11.4,11.4,51,0.00,,OVC,0.00,WeatherDisplay:10.37,2013-07-19 20:53:00,
2013-07-19 15:58:00,87.8,66.8,29.81,NW,315,5.6,6.9,50,0.00,,OVC,0.00,WeatherDisplay:10.37,2013-07-19 20:58:00,
2013-07-19 16:03:00,87.6,67.3,29.81,WNW,292,6.4,9.2,51,0.00,,OVC,0.00,WeatherDisplay:10.37,2013-07-19 21:03:00,
2013-07-19 16:08:00,87.4,66.5,29.82,WNW,292,6.7,6.9,50,0.00,,OVC,0.00,WeatherDisplay:10.37,2013-07-19 21:08:00,
2013-07-19 16:13:00,87.4,66.5,29.82,NW,315,4.5,4.6,50,0.00,,OVC,0.00,WeatherDisplay:10.37,2013-07-19 21:13:00,
2013-07-19 16:18:00,87.1,65.6,29.82,WNW,292,2.9,8.1,49,0.00,,OVC,0.00,WeatherDisplay:10.37,2013-07-19 21:18:00,
2013-07-19 16:23:00,86.9,64.8,29.82,WNW,292,6.9,6.9,48,0.00,,OVC,0.00,WeatherDisplay:10.37,2013-07-19 21:23:00,
2013-07-19 16:28:00,86.7,65.9,29.82,NNW,338,8.5,8.5,50,0.00,,OVC,0.00,WeatherDisplay:10.37,2013-07-19 21:28:00,
2013-07-19 16:33:00,86.5,65.1,29.82,NNW,338,4.7,10.4,49,0.00,,OVC,0.00,WeatherDisplay:10.37,2013-07-19 21:33:00,
2013-07-19 16:38:00,86.7,65.9,29.82,NW,315,2.4,4.6,50,0.00,,OVC,0.00,WeatherDisplay:10.37,2013-07-19 21:38:00,
2013-07-19 16:43:00,86.5,63.9,29.82,NW,315,6.9,6.9,47,0.00,,OVC,0.00,WeatherDisplay:10.37,2013-07-19 21:43:00,
2013-07-19 16:48:00,86.2,64.8,29.82,NNW,338,4.7,5.8,49,0.00,,OVC,0.00,WeatherDisplay:10.37,2013-07-19 21:48:00,
2013-07-19 16:53:00,86.0,64.0,29.82,NNW,338,7.4,10.4,48,0.00,,OVC,0.00,WeatherDisplay:10.37,2013-07-19 21:53:00,
2013-07-19 16:58:00,85.8,64.5,29.82,WNW,292,8.1,8.1,49,0.00,,OVC,0.00,WeatherDisplay:10.37,2013-07-19 21:58:00,
2013-07-19 17:03:00,86.0,65.2,29.82,NNW,338,6.2,6.2,50,0.00,,OVC,0.00,WeatherDisplay:10.37,2013-07-19 22:03:00,
2013-07-19 17:08:00,86.0,64.6,29.82,WNW,292,3.8,6.9,49,0.00,,OVC,0.00,WeatherDisplay:10.37,2013-07-19 22:08:00,
2013-07-19 17:13:00,85.8,65.0,29.82,NNW,338,6.9,6.9,50,0.00,,OVC,0.00,WeatherDisplay:10.37,2013-07-19 22:13:00,
2013-07-19 17:18:00,85.8,65.6,29.82,West,270,4.3,12.7,51,0.00,,OVC,0.00,WeatherDisplay:10.37,2013-07-19 22:18:00,
2013-07-19 17:23:00,85.5,65.8,29.82,WNW,292,4.0,5.8,52,0.00,,OVC,0.00,WeatherDisplay:10.37,2013-07-19 22:23:00,
2013-07-19 17:28:00,85.5,65.3,29.82,NW,315,5.4,8.1,51,0.00,,OVC,0.00,WeatherDisplay:10.37,2013-07-19 22:28:00,
2013-07-19 17:33:00,85.3,65.7,29.81,WNW,292,7.4,7.4,52,0.00,,OVC,0.00,WeatherDisplay:10.37,2013-07-19 22:33:00,
2013-07-19 17:38:00,85.1,65.5,29.81,WNW,292,6.9,6.9,52,0.00,,OVC,0.00,WeatherDisplay:10.37,2013-07-19 22:38:00,
2013-07-19 17:43:00,85.1,65.5,29.81,NW,315,5.9,6.9,52,0.00,,OVC,0.00,WeatherDisplay:10.37,2013-07-19 22:43:00,
2013-07-19 17:48:00,84.9,66.4,29.81,NW,315,4.0,5.8,54,0.00,,OVC,0.00,WeatherDisplay:10.37,2013-07-19 22:48:00,
2013-07-19 17:53:00,84.7,66.8,29.82,WNW,292,1.8,3.5,55,0.00,,OVC,0.00,WeatherDisplay:10.37,2013-07-19 22:53:00,
2013-07-19 17:58:00,84.7,67.3,29.81,NW,315,4.7,5.8,56,0.00,,OVC,0.00,WeatherDisplay:10.37,2013-07-19 22:58:00,
2013-07-19 18:03:00,84.6,67.1,29.81,NNW,338,6.0,6.9,56,0.00,,OVC,0.00,WeatherDisplay:10.37,2013-07-19 23:03:00,
2013-07-19 18:08:00,84.4,67.0,29.81,NNW,338,2.2,4.6,56,0.00,,OVC,0.00,WeatherDisplay:10.37,2013-07-19 23:08:00,
2013-07-19 18:13:00,84.4,67.0,29.81,NNW,338,2.4,9.2,56,0.00,,OVC,0.00,WeatherDisplay:10.37,2013-07-19 23:13:00,
2013-07-19 18:18:00,84.2,66.3,29.81,NW,315,6.4,9.2,55,0.00,,OVC,0.00,WeatherDisplay:10.37,2013-07-19 23:18:00,
2013-07-19 18:23:00,84.0,66.1,29.81,NW,315,5.9,9.2,55,0.00,,OVC,0.00,WeatherDisplay:10.37,2013-07-19 23:23:00,
2013-07-19 18:28:00,83.8,66.5,29.81,North,0,4.3,9.2,56,0.00,,OVC,0.00,WeatherDisplay:10.37,2013-07-19 23:28:00,
2013-07-19 18:33:00,83.8,67.0,29.81,North,0,4.5,4.6,57,0.00,,OVC,0.00,WeatherDisplay:10.37,2013-07-19 23:33:00,
2013-07-19 18:38:00,83.5,66.6,29.81,NNW,338,4.5,5.8,57,0.00,,OVC,0.00,WeatherDisplay:10.37,2013-07-19 23:38:00,
2013-07-19 18:43:00,83.5,65.6,29.81,NW,315,4.3,4.3,55,0.00,,OVC,0.00,WeatherDisplay:10.37,2013-07-19 23:43:00,
2013-07-19 18:48:00,83.3,66.5,29.81,North,0,2.4,4.6,57,0.00,,OVC,0.00,WeatherDisplay:10.37,2013-07-19 23:48:00,
2013-07-19 18:54:00,83.1,65.8,29.81,NNW,338,2.9,5.8,56,0.00,,OVC,0.00,WeatherDisplay:10.37,2013-07-19 23:54:00,
2013-07-19 18:58:00,82.9,65.6,29.82,NW,315,3.1,5.8,56,0.00,,OVC,0.00,WeatherDisplay:10.37,2013-07-19 23:58:00,
2013-07-19 19:04:00,82.8,65.5,29.81,NNW,338,8.3,8.3,56,0.00,,OVC,0.00,WeatherDisplay:10.37,2013-07-20 00:04:00,
2013-07-19 19:09:00,82.6,65.3,29.82,NNW,338,2.2,5.8,56,0.00,,OVC,0.00,WeatherDisplay:10.37,2013-07-20 00:09:00,
2013-07-19 19:14:00,82.4,65.6,29.82,NNW,338,4.7,6.9,57,0.00,,OVC,0.00,WeatherDisplay:10.37,2013-07-20 00:14:00,
2013-07-19 19:19:00,82.2,66.5,29.82,NNW,338,7.4,7.4,59,0.00,,OVC,0.00,WeatherDisplay:10.37,2013-07-20 00:19:00,
2013-07-19 19:24:00,82.0,66.3,29.82,WNW,292,4.5,4.6,59,0.00,,OVC,0.00,WeatherDisplay:10.37,2013-07-20 00:24:00,
2013-07-19 19:29:00,81.7,65.5,29.82,NNW,338,2.0,4.6,58,0.00,,OVC,0.00,WeatherDisplay:10.37,2013-07-20 00:29:00,
2013-07-19 19:34:00,81.5,65.8,29.82,North,0,4.0,4.0,59,0.00,,OVC,0.00,WeatherDisplay:10.37,2013-07-20 00:34:00,
2013-07-19 19:39:00,81.5,65.8,29.82,NNW,338,2.4,3.5,59,0.00,,OVC,0.00,WeatherDisplay:10.37,2013-07-20 00:39:00,
2013-07-19 19:44:00,81.1,65.5,29.82,NW,315,4.3,4.6,59,0.00,,OVC,0.00,WeatherDisplay:10.37,2013-07-20 00:44:00,
2013-07-19 19:49:00,81.0,65.3,29.82,NW,315,4.7,4.7,59,0.00,,OVC,0.00,WeatherDisplay:10.37,2013-07-20 00:49:00,
2013-07-19 19:54:00,80.6,64.9,29.83,NNW,338,2.4,4.6,59,0.00,,OVC,0.00,WeatherDisplay:10.37,2013-07-20 00:54:00,
2013-07-19 19:59:00,80.4,64.8,29.83,NW,315,3.1,3.5,59,0.00,,OVC,0.00,WeatherDisplay:10.37,2013-07-20 00:59:00,
2013-07-19 20:04:00,80.1,64.4,29.83,NNW,338,3.1,4.6,59,0.00,,OVC,0.00,WeatherDisplay:10.37,2013-07-20 01:04:00,
2013-07-19 20:09:00,79.7,64.6,29.83,North,0,3.1,3.1,60,0.00,,OVC,0.00,WeatherDisplay:10.37,2013-07-20 01:09:00,
2013-07-19 20:14:00,79.3,64.2,29.83,NNW,338,1.8,2.3,60,0.00,,OVC,0.00,WeatherDisplay:10.37,2013-07-20 01:14:00,
2013-07-19 20:19:00,79.0,63.9,29.83,NNW,338,2.2,2.3,60,0.00,,OVC,0.00,WeatherDisplay:10.37,2013-07-20 01:19:00,
2013-07-19 20:24:00,78.4,63.9,29.83,NNW,338,2.0,2.3,61,0.00,,OVC,0.00,WeatherDisplay:10.37,2013-07-20 01:24:00,
2013-07-19 20:29:00,78.1,63.1,29.83,North,0,2.0,3.5,60,0.00,,OVC,0.00,WeatherDisplay:10.37,2013-07-20 01:29:00,
2013-07-19 20:34:00,77.5,62.1,29.83,NNW,338,2.0,2.3,59,0.00,,OVC,0.00,WeatherDisplay:10.37,2013-07-20 01:34:00,
2013-07-19 20:39:00,77.0,61.6,29.83,NNW,338,2.6,2.6,59,0.00,,OVC,0.00,WeatherDisplay:10.37,2013-07-20 01:39:00,
2013-07-19 20:44:00,76.6,60.8,29.83,NNW,338,1.8,2.3,58,0.00,,OVC,0.00,WeatherDisplay:10.37,2013-07-20 01:44:00,
2013-07-19 20:49:00,76.3,60.9,29.83,NNW,338,3.6,3.6,59,0.00,,OVC,0.00,WeatherDisplay:10.37,2013-07-20 01:49:00,
2013-07-19 20:54:00,75.9,60.6,29.84,NNW,338,2.4,3.5,59,0.00,,OVC,0.00,WeatherDisplay:10.37,2013-07-20 01:54:00,
2013-07-19 20:59:00,75.2,60.4,29.84,NW,315,2.4,2.4,60,0.00,,OVC,0.00,WeatherDisplay:10.37,2013-07-20 01:59:00,
2013-07-19 21:04:00,74.8,60.0,29.84,NW,315,2.4,2.4,60,0.00,,OVC,0.00,WeatherDisplay:10.37,2013-07-20 02:04:00,
2013-07-19 21:09:00,74.5,60.1,29.84,NNW,338,1.8,2.3,61,0.00,,OVC,0.00,WeatherDisplay:10.37,2013-07-20 02:09:00,
2013-07-19 21:14:00,74.1,60.3,29.84,NNW,338,2.4,2.4,62,0.00,,OVC,0.00,WeatherDisplay:10.37,2013-07-20 02:14:00,
2013-07-19 21:19:00,73.6,60.2,29.84,NNW,338,1.8,2.3,63,0.00,,OVC,0.00,WeatherDisplay:10.37,2013-07-20 02:19:00,
2013-07-19 21:24:00,73.0,60.1,29.84,NNW,338,3.1,3.1,64,0.00,,OVC,0.00,WeatherDisplay:10.37,2013-07-20 02:24:00,
2013-07-19 21:29:00,72.7,60.2,29.84,NNW,338,2.4,2.4,65,0.00,,OVC,0.00,WeatherDisplay:10.37,2013-07-20 02:29:00,
2013-07-19 21:34:00,72.3,59.9,29.85,NNW,338,2.6,2.6,65,0.00,,OVC,0.00,WeatherDisplay:10.37,2013-07-20 02:34:00,
2013-07-19 21:39:00,72.1,60.2,29.85,NNW,338,2.4,2.4,66,0.00,,OVC,0.00,WeatherDisplay:10.37,2013-07-20 02:39:00,
2013-07-19 21:44:00,72.0,60.4,29.85,NNW,338,2.4,2.4,67,0.00,,OVC,0.00,WeatherDisplay:10.37,2013-07-20 02:44:00,
2013-07-19 21:49:00,71.8,60.2,29.86,NNW,338,2.4,2.4,67,0.00,,OVC,0.00,WeatherDisplay:10.37,2013-07-20 02:49:00,
2013-07-19 21:54:00,71.4,59.9,29.86,NNW,338,2.2,2.3,67,0.00,,OVC,0.00,WeatherDisplay:10.37,2013-07-20 02:54:00,
2013-07-19 21:59:00,71.2,59.7,29.86,NNW,338,1.6,2.3,67,0.00,,OVC,0.00,WeatherDisplay:10.37,2013-07-20 02:59:00,
2013-07-19 22:04:00,71.2,59.7,29.86,NNW,338,0.9,1.2,67,0.00,,OVC,0.00,WeatherDisplay:10.37,2013-07-20 03:04:00,
2013-07-19 22:09:00,71.1,60.0,29.86,NNW,338,1.2,1.2,68,0.00,,OVC,0.00,WeatherDisplay:10.37,2013-07-20 03:09:00,
2013-07-19 22:14:00,70.9,60.2,29.87,NNW,338,1.4,1.4,69,0.00,,OVC,0.00,WeatherDisplay:10.37,2013-07-20 03:14:00,
2013-07-19 22:19:00,70.5,59.9,29.87,NNW,338,1.2,1.2,69,0.00,,OVC,0.00,WeatherDisplay:10.37,2013-07-20 03:19:00,
2013-07-19 22:24:00,70.3,60.1,29.87,NNW,338,1.2,2.3,70,0.00,,OVC,0.00,WeatherDisplay:10.37,2013-07-20 03:24:00,
2013-07-19 22:29:00,70.3,60.1,29.87,NNW,338,1.2,1.2,70,0.00,,OVC,0.00,WeatherDisplay:10.37,2013-07-20 03:29:00,
2013-07-19 22:35:00,70.2,59.9,29.87,NNW,338,1.8,1.8,70,0.00,,OVC,0.00,WeatherDisplay:10.37,2013-07-20 03:35:00,
2013-07-19 22:39:00,70.2,59.9,29.87,NNW,338,1.2,1.2,70,0.00,,OVC,0.00,WeatherDisplay:10.37,2013-07-20 03:39:00,
2013-07-19 22:44:00,70.0,60.1,29.87,NNW,338,1.4,1.4,71,0.00,,OVC,0.00,WeatherDisplay:10.37,2013-07-20 03:44:00,
2013-07-19 22:50:00,69.6,60.2,29.87,NNW,338,1.4,2.3,72,0.00,,OVC,0.00,WeatherDisplay:10.37,2013-07-20 03:50:00,
2013-07-19 22:55:00,69.4,60.0,29.87,NNW,338,1.8,2.3,72,0.00,,OVC,0.00,WeatherDisplay:10.37,2013-07-20 03:55:00,
2013-07-19 23:00:00,69.1,60.1,29.87,NNW,338,1.4,2.3,73,0.00,,OVC,0.00,WeatherDisplay:10.37,2013-07-20 04:00:00,
2013-07-19 23:01:00,69.1,60.1,29.88,NNW,338,1.4,1.4,73,0.00,,OVC,0.00,WeatherDisplay:10.37,2013-07-20 04:01:00,
2013-07-19 23:06:00,68.7,59.7,29.88,NNW,338,1.6,1.6,73,0.00,,OVC,0.00,WeatherDisplay:10.37,2013-07-20 04:06:00,
2013-07-19 23:11:00,68.7,60.1,29.88,NNW,338,1.2,1.2,74,0.00,,OVC,0.00,WeatherDisplay:10.37,2013-07-20 04:11:00,
2013-07-19 23:16:00,68.5,59.9,29.88,NNW,338,1.4,1.4,74,0.00,,OVC,0.00,WeatherDisplay:10.37,2013-07-20 04:16:00,
2013-07-19 23:21:00,68.5,59.9,29.88,NNW,338,1.2,1.2,74,0.00,,OVC,0.00,WeatherDisplay:10.37,2013-07-20 04:21:00,
2013-07-19 23:26:00,68.2,59.6,29.88,NNW,338,1.8,1.8,74,0.00,,OVC,0.00,WeatherDisplay:10.37,2013-07-20 04:26:00,
2013-07-19 23:31:00,68.0,59.4,29.88,NNW,338,1.8,2.3,74,0.00,,OVC,0.00,WeatherDisplay:10.37,2013-07-20 04:31:00,
2013-07-19 23:36:00,68.0,59.8,29.89,NNW,338,1.8,2.3,75,0.00,,OVC,0.00,WeatherDisplay:10.37,2013-07-20 04:36:00,
2013-07-19 23:41:00,68.0,59.8,29.88,NNW,338,1.4,2.3,75,0.00,,OVC,0.00,WeatherDisplay:10.37,2013-07-20 04:41:00,
2013-07-19 23:46:00,68.0,59.8,29.89,NNW,338,1.2,1.2,75,0.00,,OVC,0.00,WeatherDisplay:10.37,2013-07-20 04:46:00,
2013-07-19 23:51:00,67.8,59.6,29.88,NW,315,1.2,2.3,75,0.00,,OVC,0.00,WeatherDisplay:10.37,2013-07-20 04:51:00,
2013-07-19 23:56:00,68.0,59.8,29.88,NNW,338,0.9,1.2,75,0.00,,OVC,0.00,WeatherDisplay:10.37,2013-07-20 04:56:00,